Terminal Aerodrome Forecast
Issued by NWS Mt. Holly, NJ

Home | Current Version | Previous Version | Text Only | Print | Product List | Glossary On
Versions: 1 2 3 4 5 6 7 8 9 10 11 12 13 14 15 16 17 18 19 20 21 22 23 24
000
FTUS41 KPHI 310155 AAB
TAFACY
TAF AMD
KACY 310155Z 3102/3124 23004KT 6SM -RA SCT006 OVC080
      TEMPO 3102/3104 3SM BR BKN004 OVC080
     FM310400 VRB02KT 2SM BR OVC004
     FM310600 00000KT 1SM BR OVC004
     FM311200 00000KT 4SM BR FEW004
     FM311500 32004KT P6SM FEW040
     FM312000 16006KT P6SM FEW040=

USA.gov is the U.S. government's official web portal to all federal, state and local government web resources and services.